Time;durP1;ratioP1;P1;durP2;ratioP2;P2;SDS_P1;SDS_P2;PMS_P1;PMS_P2;Temp;Humidity;BMP_temperature;BMP_pressure;BME280_temperature;BME280_humidity;BME280_pressure;Samples;Min_cycle;Max_cycle;Signal;HPM_P1;HPM_P2
2023/09/24 00:00:20;;;;;;;13.80;8.60;;;;;;;18.27;57.73;99658.31;107098;1260;72698;-39
2023/09/24 00:02:48;;;;;;;16.70;8.80;;;;;;;18.24;57.84;99662.81;107025;1261;60373;-39
2023/09/24 00:05:17;;;;;;;13.20;8.30;;;;;;;18.22;57.93;99661.48;107283;1260;61188;-39
2023/09/24 00:07:45;;;;;;;13.00;8.10;;;;;;;18.20;57.93;99662.84;107233;1258;73806;-39
2023/09/24 00:10:14;;;;;;;15.80;8.50;;;;;;;18.18;58.04;99666.39;107233;1257;66280;-39
2023/09/24 00:12:43;;;;;;;14.50;8.10;;;;;;;18.15;58.14;99666.23;107264;1257;72694;-39
2023/09/24 00:15:13;;;;;;;15.70;8.10;;;;;;;18.13;58.22;99664.92;107218;1257;60797;-39
2023/09/24 00:17:41;;;;;;;11.90;8.60;;;;;;;18.11;58.21;99664.95;107265;1257;60018;-39
2023/09/24 00:20:10;;;;;;;13.40;8.20;;;;;;;18.09;58.24;99669.59;107205;1258;72564;-39
2023/09/24 00:22:38;;;;;;;14.60;8.60;;;;;;;18.06;58.21;99668.73;107213;1257;66845;-41
2023/09/24 00:25:06;;;;;;;15.40;8.40;;;;;;;18.04;58.42;99667.11;107232;1260;71373;-40
2023/09/24 00:27:35;;;;;;;13.50;8.60;;;;;;;18.03;58.47;99667.11;107308;1256;60459;-40
2023/09/24 00:30:05;;;;;;;15.80;8.40;;;;;;;18.01;58.43;99669.87;107137;1256;60287;-40
2023/09/24 00:32:35;;;;;;;10.10;7.80;;;;;;;17.99;58.53;99667.05;107347;1257;73829;-39
2023/09/24 00:35:05;;;;;;;15.70;8.50;;;;;;;17.96;58.70;99669.27;107280;1258;67590;-40
2023/09/24 00:37:33;;;;;;;;;;;;;;;17.93;58.66;99671.71;107269;1258;70692;-40
2023/09/24 00:40:03;;;;;;;12.80;7.70;;;;;;;17.90;58.92;99673.38;107263;1257;60326;-40
2023/09/24 00:42:32;;;;;;;11.20;8.40;;;;;;;17.87;59.05;99674.35;107270;1258;60341;-40
2023/09/24 00:45:00;;;;;;;15.30;8.70;;;;;;;17.84;59.08;99677.48;107249;1258;73963;-40
2023/09/24 00:47:27;;;;;;;12.70;8.50;;;;;;;17.81;59.31;99677.97;107277;1261;66306;-40
2023/09/24 00:49:55;;;;;;;12.80;8.20;;;;;;;17.78;59.40;99675.02;106947;1258;72699;-40
2023/09/24 00:52:23;;;;;;;15.90;8.10;;;;;;;17.75;59.46;99675.90;107102;1257;60554;-40
2023/09/24 00:54:51;;;;;;;11.20;7.50;;;;;;;17.78;59.44;99676.02;107249;1257;60501;-40
2023/09/24 00:57:19;;;;;;;10.80;7.30;;;;;;;17.83;59.52;99674.90;107234;1257;72568;-40
2023/09/24 00:59:47;;;;;;;17.60;7.90;;;;;;;17.84;59.63;99675.38;107251;1262;66331;-40
2023/09/24 01:02:16;;;;;;;14.40;8.30;;;;;;;17.81;59.67;99677.73;107288;1260;72642;-40
2023/09/24 01:04:44;;;;;;;13.00;7.90;;;;;;;17.81;59.63;99672.56;107244;1258;60325;-40
2023/09/24 01:07:12;;;;;;;14.30;8.30;;;;;;;17.81;59.65;99671.47;107231;1257;60332;-40
2023/09/24 01:09:42;;;;;;;11.50;8.30;;;;;;;17.80;59.67;99669.29;107078;1257;73858;-40
2023/09/24 01:12:31;;;;;;;13.50;7.90;;;;;;;17.78;59.76;99672.41;107165;1257;66721;-40
2023/09/24 01:14:58;;;;;;;12.90;7.90;;;;;;;17.74;59.75;99671.51;107232;1257;72670;-40
2023/09/24 01:17:27;;;;;;;16.90;8.60;;;;;;;17.72;59.92;99675.73;107321;1263;60332;-40
2023/09/24 01:19:55;;;;;;;14.00;8.10;;;;;;;17.71;60.10;99675.05;107128;1260;60391;-40
2023/09/24 01:22:23;;;;;;;13.90;8.60;;;;;;;17.68;60.48;99678.27;107183;1262;73901;-40
2023/09/24 01:24:52;;;;;;;14.20;8.40;;;;;;;17.66;60.59;99678.69;107282;1257;67604;-40
2023/09/24 01:27:21;;;;;;;11.60;8.20;;;;;;;17.64;60.81;99683.45;107256;1263;71494;-40
2023/09/24 01:29:50;;;;;;;11.30;8.40;;;;;;;17.63;60.63;99682.20;107233;1257;60521;-39
2023/09/24 01:32:18;;;;;;;13.70;8.20;;;;;;;17.61;60.52;99682.38;107259;1257;60515;-39
2023/09/24 01:34:48;;;;;;;13.20;8.00;;;;;;;17.58;60.53;99684.02;107268;1257;72611;-38
2023/09/24 01:37:15;;;;;;;16.20;8.80;;;;;;;17.55;60.66;99683.16;107223;1257;66632;-39
2023/09/24 01:39:43;;;;;;;16.60;8.10;;;;;;;17.53;60.80;99684.80;107282;1258;71886;-39
2023/09/24 01:42:13;;;;;;;13.40;7.50;;;;;;;17.57;60.78;99684.56;107113;1260;61840;-39
2023/09/24 01:44:41;;;;;;;12.40;8.10;;;;;;;17.62;60.73;99679.87;107269;1261;60323;-39
2023/09/24 01:47:10;;;;;;;16.10;8.00;;;;;;;17.62;60.76;99681.50;107046;1257;74009;-39
2023/09/24 01:49:37;;;;;;;15.90;8.30;;;;;;;17.61;60.82;99679.73;107275;1260;66741;-39
2023/09/24 01:52:05;;;;;;;18.20;8.20;;;;;;;17.62;60.75;99680.02;107225;1257;72786;-39
2023/09/24 01:54:33;;;;;;;16.80;8.50;;;;;;;17.61;60.82;99683.48;107249;1258;60210;-39
2023/09/24 01:57:02;;;;;;;14.10;8.40;;;;;;;17.60;61.06;99690.23;107243;1256;60404;-39
2023/09/24 01:59:30;;;;;;;13.00;8.50;;;;;;;17.58;61.18;99691.52;107157;1257;74303;-40
2023/09/24 02:01:58;;;;;;;15.00;8.30;;;;;;;17.58;61.01;99692.30;107123;1258;67576;-39
2023/09/24 02:04:26;;;;;;;15.30;8.50;;;;;;;17.57;60.85;99694.04;107284;1257;72792;-39
2023/09/24 02:06:53;;;;;;;16.50;8.70;;;;;;;17.53;60.89;99697.27;107292;1256;60511;-40
2023/09/24 02:09:21;;;;;;;13.80;8.60;;;;;;;17.50;61.20;99703.70;107176;1258;60338;-40
2023/09/24 02:11:53;;;;;;;10.70;7.90;;;;;;;17.46;61.19;99702.39;107301;1257;73917;-39
2023/09/24 02:14:21;;;;;;;11.50;8.10;;;;;;;17.42;61.34;99704.83;107126;1260;66606;-39
2023/09/24 02:16:50;;;;;;;13.70;8.50;;;;;;;17.37;61.45;99703.66;107208;1257;72667;-39
2023/09/24 02:19:18;;;;;;;16.10;8.70;;;;;;;17.34;61.49;99701.80;107139;1263;61732;-39
2023/09/24 02:21:46;;;;;;;15.60;7.40;;;;;;;17.35;61.49;99707.59;107244;1257;60442;-39
2023/09/24 02:24:13;;;;;;;11.70;7.40;;;;;;;17.38;61.49;99708.36;107322;1257;73861;-39
2023/09/24 02:26:42;;;;;;;12.90;8.30;;;;;;;17.35;61.57;99702.41;107234;1260;66790;-39
2023/09/24 02:29:09;;;;;;;16.30;7.80;;;;;;;17.32;61.60;99699.06;107248;1257;72688;-39
2023/09/24 02:31:37;;;;;;;16.00;8.00;;;;;;;17.29;61.54;99695.77;107133;1257;60547;-39
2023/09/24 02:34:05;;;;;;;16.70;7.70;;;;;;;17.30;61.44;99695.39;107246;1263;60456;-39
2023/09/24 02:36:33;;;;;;;15.20;8.40;;;;;;;17.30;61.58;99698.98;107290;1257;73845;-39
2023/09/24 02:39:01;;;;;;;13.60;8.30;;;;;;;17.30;61.52;99694.21;107227;1257;66593;-39
2023/09/24 02:41:31;;;;;;;12.30;8.60;;;;;;;17.27;61.59;99691.95;107306;1258;72306;-39
2023/09/24 02:44:01;;;;;;;14.00;8.40;;;;;;;17.23;61.59;99690.01;107267;1257;60084;-39
2023/09/24 02:46:30;;;;;;;14.20;9.00;;;;;;;17.21;61.54;99691.41;107303;1261;60299;-39
2023/09/24 02:48:57;;;;;;;13.40;8.40;;;;;;;17.17;61.84;99689.16;107314;1257;73892;-39
2023/09/24 02:51:25;;;;;;;16.80;8.50;;;;;;;17.13;61.91;99693.32;107147;1257;67897;-39
2023/09/24 02:53:53;;;;;;;12.50;8.50;;;;;;;17.10;62.18;99691.98;107271;1260;72728;-39
2023/09/24 02:56:21;;;;;;;12.60;7.70;;;;;;;17.16;62.22;99700.52;107292;1261;60450;-39
2023/09/24 02:58:49;;;;;;;16.00;8.50;;;;;;;17.21;62.19;99702.30;107278;1260;59976;-39
2023/09/24 03:01:20;;;;;;;17.10;8.60;;;;;;;17.23;62.14;99704.97;107166;1258;73835;-39
2023/09/24 03:03:50;;;;;;;12.60;8.60;;;;;;;17.22;62.20;99700.11;107327;1258;66750;-39
2023/09/24 03:06:19;;;;;;;14.00;8.70;;;;;;;17.21;62.03;99701.05;107254;1257;72966;-39
2023/09/24 03:08:49;;;;;;;13.40;8.60;;;;;;;17.20;62.04;99704.17;107291;1260;60373;-39
2023/09/24 03:11:17;;;;;;;14.30;8.40;;;;;;;17.17;61.99;99709.21;107156;1257;60550;-39
2023/09/24 03:13:45;;;;;;;17.70;9.00;;;;;;;17.15;62.07;99714.36;107239;1261;72618;-39
2023/09/24 03:16:13;;;;;;;13.20;9.00;;;;;;;17.12;62.09;99717.05;107288;1260;67693;-39
2023/09/24 03:18:41;;;;;;;18.20;9.30;;;;;;;17.09;62.04;99719.95;107263;1262;71929;-39
2023/09/24 03:21:13;;;;;;;14.00;8.80;;;;;;;17.04;62.20;99726.29;107338;1258;60351;-39
2023/09/24 03:23:41;;;;;;;13.70;9.00;;;;;;;16.97;62.34;99730.91;107247;1262;60341;-39
2023/09/24 03:26:14;;;;;;;11.70;7.80;;;;;;;16.91;62.56;99727.63;107261;1260;73867;-39
2023/09/24 03:28:42;;;;;;;14.60;7.60;;;;;;;16.93;62.57;99728.02;107268;1258;67267;-39
2023/09/24 03:31:16;;;;;;;13.60;8.30;;;;;;;16.98;62.60;99728.73;107206;1261;72699;-39
2023/09/24 03:33:44;;;;;;;17.60;9.20;;;;;;;16.99;62.54;99728.66;107303;1256;60463;-39
2023/09/24 03:36:12;;;;;;;15.20;8.40;;;;;;;17.00;62.50;99728.79;107311;1257;60426;-39
2023/09/24 03:38:40;;;;;;;15.00;9.00;;;;;;;17.00;62.60;99729.81;107196;1257;73906;-39
2023/09/24 03:41:08;;;;;;;14.70;8.20;;;;;;;17.01;62.52;99729.58;107176;1258;66296;-39
2023/09/24 03:43:36;;;;;;;13.50;8.70;;;;;;;17.00;62.50;99737.01;107337;1256;71452;-39
2023/09/24 03:46:04;;;;;;;14.90;8.70;;;;;;;16.98;62.55;99734.20;107254;1262;60533;-39
2023/09/24 03:48:32;;;;;;;18.30;8.90;;;;;;;16.95;62.60;99740.23;107182;1257;60434;-39
2023/09/24 03:51:00;;;;;;;21.50;9.50;;;;;;;16.89;62.81;99745.08;107265;1260;72681;-39
2023/09/24 03:53:28;;;;;;;12.70;8.80;;;;;;;16.86;62.96;99744.92;107400;1258;66572;-39
2023/09/24 03:55:55;;;;;;;12.60;8.60;;;;;;;16.84;63.02;99743.60;107316;1262;73362;-39
2023/09/24 03:58:24;;;;;;;13.40;8.00;;;;;;;16.88;63.02;99746.10;107322;1258;61305;-39
2023/09/24 04:00:51;;;;;;;12.60;8.60;;;;;;;16.94;62.97;99747.04;107339;1257;60423;-39
2023/09/24 04:03:20;;;;;;;11.20;8.40;;;;;;;16.94;63.00;99751.73;107286;1257;72571;-39
2023/09/24 04:05:48;;;;;;;20.70;8.90;;;;;;;16.94;62.97;99754.31;107289;1260;67676;-39
2023/09/24 04:08:16;;;;;;;11.60;9.20;;;;;;;16.94;63.02;99753.92;107192;1258;72780;-40
2023/09/24 04:10:43;;;;;;;14.70;8.90;;;;;;;16.93;63.08;99751.81;107286;1257;59536;-40
2023/09/24 04:13:12;;;;;;;15.10;8.80;;;;;;;16.95;62.87;99755.25;107323;1260;60465;-40
2023/09/24 04:15:40;;;;;;;15.00;9.00;;;;;;;16.92;62.97;99749.94;107302;1257;72630;-39
2023/09/24 04:18:07;;;;;;;15.90;9.40;;;;;;;16.89;63.02;99757.76;107368;1260;67576;-39
2023/09/24 04:20:35;;;;;;;17.90;9.40;;;;;;;16.87;63.14;99763.86;107285;1258;72971;-39
2023/09/24 04:23:03;;;;;;;14.30;9.70;;;;;;;16.85;63.21;99765.05;107380;1257;60534;-39
2023/09/24 04:25:30;;;;;;;14.80;8.60;;;;;;;16.81;63.25;99772.07;107305;1257;59496;-39
2023/09/24 04:27:59;;;;;;;15.10;8.30;;;;;;;16.87;63.33;99771.05;107244;1257;73852;-39
2023/09/24 04:30:27;;;;;;;12.50;8.00;;;;;;;16.96;63.14;99773.56;107257;1260;67905;-39
2023/09/24 04:32:57;;;;;;;20.70;9.80;;;;;;;17.00;63.14;99779.11;107277;1257;72716;-39
2023/09/24 04:35:27;;;;;;;12.90;8.70;;;;;;;17.02;63.14;99778.80;107309;1261;60082;-39
2023/09/24 04:37:56;;;;;;;13.50;8.90;;;;;;;17.05;63.17;99783.81;107332;1258;60331;-39
2023/09/24 04:40:25;;;;;;;13.80;8.70;;;;;;;17.09;63.13;99786.16;107360;1260;73853;-39
2023/09/24 04:42:52;;;;;;;14.30;10.10;;;;;;;17.13;62.99;99797.02;107315;1260;67592;-39
2023/09/24 04:45:20;;;;;;;13.50;8.90;;;;;;;17.16;63.22;99797.73;107276;1260;71417;-39
2023/09/24 04:47:48;;;;;;;15.40;9.90;;;;;;;17.18;63.09;99797.66;107290;1257;60523;-39
2023/09/24 04:50:17;;;;;;;15.50;9.80;;;;;;;17.21;63.08;99798.59;107272;1257;60303;-39
2023/09/24 04:52:47;;;;;;;14.90;9.20;;;;;;;17.23;63.07;99801.41;107258;1256;72877;-39
2023/09/24 04:55:16;;;;;;;14.40;9.30;;;;;;;17.25;63.02;99809.30;107298;1257;67533;-39
2023/09/24 04:57:45;;;;;;;17.50;8.70;;;;;;;17.30;62.90;99806.58;107350;1257;71409;-39
2023/09/24 05:00:15;;;;;;;15.40;8.90;;;;;;;17.42;62.98;99814.23;107335;1256;60414;-39
2023/09/24 05:02:44;;;;;;;12.80;8.90;;;;;;;17.49;63.07;99821.73;107329;1254;60462;-39
2023/09/24 05:05:12;;;;;;;15.50;9.00;;;;;;;17.48;62.91;99810.92;107306;1257;72572;-39
2023/09/24 05:07:40;;;;;;;14.20;8.60;;;;;;;17.61;62.94;99825.42;107300;1257;68088;-39
2023/09/24 05:10:09;;;;;;;14.60;9.40;;;;;;;17.66;63.02;99829.02;107242;1260;73120;-39
2023/09/24 05:12:37;;;;;;;15.20;9.30;;;;;;;17.72;63.12;99827.35;107359;1256;60446;-39
2023/09/24 05:15:05;;;;;;;14.10;9.90;;;;;;;17.77;63.38;99824.52;107289;1256;60239;-39
2023/09/24 05:17:33;;;;;;;15.30;9.00;;;;;;;17.81;63.33;99830.23;107311;1257;73916;-39
2023/09/24 05:20:03;;;;;;;13.70;9.10;;;;;;;17.87;63.29;99827.31;107270;1257;67583;-39
2023/09/24 05:22:30;;;;;;;15.60;8.00;;;;;;;17.92;63.38;99826.11;107251;1257;72485;-39
2023/09/24 05:24:58;;;;;;;14.70;8.30;;;;;;;18.03;63.12;99827.48;107221;1257;61820;-39
2023/09/24 05:27:29;;;;;;;12.60;8.20;;;;;;;18.15;63.04;99829.95;107220;1258;60698;-38
2023/09/24 05:29:56;;;;;;;15.60;9.00;;;;;;;18.23;62.75;99835.40;107333;1257;72633;-38
2023/09/24 05:32:24;;;;;;;16.10;8.50;;;;;;;18.31;62.79;99837.32;107325;1257;67825;-38
2023/09/24 05:34:53;;;;;;;11.00;7.90;;;;;;;18.40;62.49;99838.85;107244;1258;72693;-38
2023/09/24 05:37:22;;;;;;;13.70;8.10;;;;;;;18.47;62.18;99840.13;107257;1261;60171;-38
2023/09/24 05:39:49;;;;;;;12.40;8.50;;;;;;;18.54;61.91;99842.80;107333;1255;60508;-39
2023/09/24 05:42:17;;;;;;;15.30;8.30;;;;;;;18.61;62.11;99846.91;107288;1257;72512;-39
2023/09/24 05:44:45;;;;;;;14.20;8.40;;;;;;;18.67;61.71;99847.83;107318;1257;67607;-39
2023/09/24 05:47:13;;;;;;;13.30;8.50;;;;;;;18.73;61.53;99849.52;107296;1257;73122;-40
2023/09/24 05:49:40;;;;;;;12.90;7.90;;;;;;;18.79;61.87;99853.32;107324;1257;60524;-39
2023/09/24 05:52:08;;;;;;;11.60;7.60;;;;;;;18.85;62.08;99853.67;107249;1257;59605;-39
2023/09/24 05:54:36;;;;;;;11.90;6.80;;;;;;;18.97;62.08;99854.23;107305;1257;72631;-39
2023/09/24 05:57:04;;;;;;;12.80;7.40;;;;;;;19.11;61.79;99854.12;107297;1260;67559;-39
2023/09/24 05:59:32;;;;;;;13.60;7.80;;;;;;;19.21;61.71;99853.40;107285;1257;72693;-39
2023/09/24 06:01:59;;;;;;;15.80;7.80;;;;;;;19.31;61.39;99852.92;107273;1258;60430;-39
2023/09/24 06:04:30;;;;;;;13.00;7.00;;;;;;;19.40;60.64;99849.70;107244;1257;60539;-40
2023/09/24 06:06:58;;;;;;;13.70;7.90;;;;;;;19.50;60.11;99846.49;107321;1257;72234;-39
2023/09/24 06:09:28;;;;;;;10.20;7.10;;;;;;;19.59;60.33;99840.84;107307;1257;67657;-39
2023/09/24 06:11:56;;;;;;;10.20;7.30;;;;;;;19.62;59.86;99834.11;107310;1257;71710;-39
2023/09/24 06:14:24;;;;;;;10.60;6.80;;;;;;;19.76;59.52;99850.56;107300;1260;60334;-39
2023/09/24 06:16:51;;;;;;;11.80;7.00;;;;;;;19.85;59.20;99854.23;107277;1257;60469;-39
2023/09/24 06:19:19;;;;;;;8.90;6.90;;;;;;;19.92;59.11;99853.75;107253;1256;72637;-39
2023/09/24 06:21:50;;;;;;;14.30;6.40;;;;;;;20.02;58.74;99853.41;107294;1256;66296;-39
2023/09/24 06:24:19;;;;;;;11.90;6.90;;;;;;;20.11;58.51;99850.32;107289;1256;71807;-39
2023/09/24 06:26:48;;;;;;;;;;;;;;;20.21;58.54;99852.63;107284;1257;60451;-39
2023/09/24 06:29:16;;;;;;;11.10;6.50;;;;;;;20.29;58.05;99853.02;107270;1256;60521;-39
2023/09/24 06:31:46;;;;;;;9.60;6.40;;;;;;;20.38;58.28;99854.33;107256;1255;73938;-39
2023/09/24 06:34:14;;;;;;;11.90;6.10;;;;;;;20.49;58.16;99854.11;107226;1260;67904;-39
2023/09/24 06:36:41;;;;;;;9.70;6.10;;;;;;;20.59;57.53;99854.45;107241;1258;72794;-39
2023/09/24 06:39:13;;;;;;;12.30;6.00;;;;;;;20.70;56.90;99859.17;107257;1257;60434;-39
2023/09/24 06:41:42;;;;;;;9.50;6.40;;;;;;;20.82;56.58;99860.58;107300;1257;60459;-39
2023/09/24 06:44:11;;;;;;;10.00;6.30;;;;;;;20.92;56.22;99860.57;107277;1255;73870;-39
2023/09/24 06:46:38;;;;;;;10.50;6.50;;;;;;;21.03;56.29;99856.39;107378;1260;66272;-39
2023/09/24 06:49:06;;;;;;;9.80;5.80;;;;;;;21.12;55.83;99853.35;107242;1260;71687;-39
2023/09/24 06:51:33;;;;;;;9.90;5.80;;;;;;;21.21;55.33;99855.02;107256;1257;60450;-39
2023/09/24 06:54:01;;;;;;;11.60;5.60;;;;;;;21.31;55.31;99853.36;107277;1256;60549;-39
2023/09/24 06:56:29;;;;;;;12.70;6.20;;;;;;;21.41;54.89;99849.11;107286;1257;73903;-39
2023/09/24 06:58:56;;;;;;;9.10;5.90;;;;;;;21.49;54.53;99846.29;107275;1260;66633;-39
2023/09/24 07:01:24;;;;;;;8.90;5.70;;;;;;;21.59;53.95;99842.31;107258;1255;72768;-39
2023/09/24 07:03:51;;;;;;;14.50;6.30;;;;;;;21.69;54.06;99844.34;107265;1260;60568;-39
2023/09/24 07:06:21;;;;;;;8.60;5.70;;;;;;;21.79;53.89;99845.64;107233;1257;60436;-39
2023/09/24 07:08:50;;;;;;;9.00;5.30;;;;;;;21.89;53.59;99848.45;107323;1257;73848;-39
2023/09/24 07:11:33;;;;;;;8.60;5.00;;;;;;;21.99;52.63;99851.59;107304;1260;68076;-39
2023/09/24 07:14:01;;;;;;;9.30;5.00;;;;;;;22.10;51.81;99849.09;107238;1258;71425;-39
2023/09/24 07:16:29;;;;;;;11.30;5.90;;;;;;;22.21;51.84;99852.82;107318;1257;60450;-39
2023/09/24 07:18:59;;;;;;;8.70;5.70;;;;;;;22.31;51.81;99852.77;107325;1257;60336;-39
2023/09/24 07:21:29;;;;;;;14.10;5.90;;;;;;;22.41;51.16;99851.43;107254;1258;73876;-39
2023/09/24 07:24:03;;;;;;;8.70;5.10;;;;;;;22.51;51.29;99849.02;107236;1260;67635;-39
2023/09/24 07:26:31;;;;;;;8.90;5.40;;;;;;;22.61;50.91;99849.67;107309;1260;72644;-39
2023/09/24 07:31:26;;;;;;;9.20;6.10;;;;;;;22.80;50.53;99846.42;104332;1291;600357;-40
2023/09/24 07:33:59;;;;;;;9.80;6.30;;;;;;;22.89;50.28;99848.89;106612;1267;60107;-40
2023/09/24 07:36:28;;;;;;;;;;;;;;;23.00;50.21;99848.32;106684;1265;60068;-39
2023/09/24 07:39:05;;;;;;;12.80;7.20;;;;;;;23.09;49.89;99845.64;106620;1267;72193;-41
2023/09/24 07:41:33;;;;;;;11.60;7.50;;;;;;;23.16;49.39;99840.09;106671;1265;68674;-39
2023/09/24 07:44:01;;;;;;;11.60;7.50;;;;;;;23.25;49.68;99831.80;106530;1266;191665;-40
2023/09/24 07:46:29;;;;;;;11.10;6.60;;;;;;;23.35;49.57;99831.16;106769;1269;59250;-40
2023/09/24 07:48:56;;;;;;;13.30;7.00;;;;;;;23.45;49.26;99833.55;106776;1262;59265;-39
2023/09/24 07:51:24;;;;;;;13.90;6.90;;;;;;;23.55;49.07;99830.29;106787;1263;72357;-39
2023/09/24 07:53:52;;;;;;;12.50;6.60;;;;;;;23.65;49.03;99830.86;106777;1264;66378;-39
2023/09/24 07:56:20;;;;;;;10.20;7.00;;;;;;;23.75;48.76;99827.75;106759;1264;72825;-39
2023/09/24 07:58:48;;;;;;;11.70;6.80;;;;;;;23.85;48.69;99825.34;106759;1262;60103;-40
2023/09/24 08:01:15;;;;;;;16.20;7.00;;;;;;;23.96;48.40;99827.88;106855;1263;60012;-39
2023/09/24 08:03:44;;;;;;;14.40;8.10;;;;;;;24.06;47.80;99835.20;106837;1263;73323;-40
2023/09/24 08:06:12;;;;;;;15.80;9.10;;;;;;;24.15;47.01;99836.30;106821;1263;67624;-39
2023/09/24 08:08:40;;;;;;;11.70;8.70;;;;;;;24.22;47.29;99836.50;106787;1264;73123;-39
2023/09/24 08:11:22;;;;;;;15.00;8.50;;;;;;;24.31;47.30;99834.27;106709;1265;60083;-39
2023/09/24 08:13:50;;;;;;;11.70;7.20;;;;;;;24.39;47.06;99834.02;106835;1262;59544;-40
2023/09/24 08:16:21;;;;;;;12.10;6.70;;;;;;;24.48;46.48;99835.34;106787;1263;73573;-40
2023/09/24 08:18:49;;;;;;;13.60;6.80;;;;;;;24.57;46.10;99842.83;106770;1264;67919;-39
2023/09/24 08:21:19;;;;;;;13.70;6.50;;;;;;;24.66;46.03;99845.77;106773;1266;73157;-40
2023/09/24 08:23:47;;;;;;;11.20;6.30;;;;;;;24.78;46.26;99845.67;106780;1263;59540;-40
2023/09/24 08:26:15;;;;;;;16.70;7.00;;;;;;;24.88;45.68;99848.38;106777;1263;60466;-39
2023/09/24 08:28:43;;;;;;;12.10;6.50;;;;;;;24.99;45.26;99849.13;106796;1263;72347;-40
2023/09/24 08:31:11;;;;;;;13.90;6.10;;;;;;;25.11;45.17;99853.05;106716;1263;67753;-40
2023/09/24 08:33:39;;;;;;;14.50;6.70;;;;;;;25.22;44.56;99856.95;106751;1266;72699;-40
2023/09/24 08:36:09;;;;;;;10.80;6.40;;;;;;;25.31;44.31;99853.96;106695;1266;60031;-40
2023/09/24 08:38:37;;;;;;;12.10;6.70;;;;;;;25.39;44.19;99852.19;106771;1263;59503;-40
2023/09/24 08:41:12;;;;;;;9.90;6.60;;;;;;;25.46;44.28;99848.26;106740;1264;73163;-40
2023/09/24 08:43:43;;;;;;;16.20;6.80;;;;;;;25.56;44.23;99847.88;106757;1269;67622;-40
2023/09/24 08:46:11;;;;;;;9.50;6.10;;;;;;;25.72;44.39;99854.01;106750;1263;72737;-40
2023/09/24 08:48:39;;;;;;;8.30;5.90;;;;;;;25.84;43.79;99853.27;106723;1264;60569;-39
2023/09/24 08:51:11;;;;;;;13.80;6.10;;;;;;;25.95;43.19;99851.90;106846;1264;60033;-39
2023/09/24 08:53:39;;;;;;;11.80;5.80;;;;;;;26.05;43.01;99851.45;106722;1264;73087;-40
2023/09/24 08:56:08;;;;;;;10.10;5.80;;;;;;;26.16;43.05;99848.98;106804;1264;67623;-40
2023/09/24 08:58:39;;;;;;;9.60;5.30;;;;;;;26.28;43.08;99853.48;106840;1264;72692;-40
2023/09/24 09:01:10;;;;;;;15.40;6.20;;;;;;;26.38;41.78;99853.27;106811;1263;60096;-40
2023/09/24 09:03:40;;;;;;;12.90;6.70;;;;;;;26.45;42.17;99855.30;106736;1264;60082;-40
2023/09/24 09:06:08;;;;;;;17.40;6.30;;;;;;;26.55;42.88;99853.75;106616;1264;73056;-40
2023/09/24 09:08:50;;;;;;;13.10;6.00;;;;;;;26.68;43.40;99856.99;106663;1269;67897;-40
2023/09/24 09:11:19;;;;;;;12.30;5.70;;;;;;;26.86;42.93;99862.80;106727;1264;72679;-40
2023/09/24 09:13:48;;;;;;;9.70;5.90;;;;;;;27.01;41.69;99862.14;106745;1266;60078;-40
2023/09/24 09:16:17;;;;;;;10.60;5.90;;;;;;;27.09;40.58;99861.78;106785;1269;60076;-40
2023/09/24 09:18:58;;;;;;;12.50;6.80;;;;;;;27.12;40.23;99868.43;106755;1269;73113;-40
2023/09/24 09:21:25;;;;;;;12.10;5.90;;;;;;;27.16;40.52;99871.66;106795;1269;67727;-40
2023/09/24 09:23:53;;;;;;;14.00;5.40;;;;;;;27.24;40.38;99867.53;106753;1264;74753;-40
2023/09/24 09:26:30;;;;;;;10.00;6.30;;;;;;;27.31;39.92;99864.39;106787;1267;59725;-40
2023/09/24 09:28:58;;;;;;;11.70;6.20;;;;;;;27.38;39.84;99858.28;106841;1263;60066;-39
2023/09/24 09:31:25;;;;;;;16.80;6.20;;;;;;;27.47;40.70;99865.73;106765;1263;71805;-40
2023/09/24 09:33:53;;;;;;;11.10;6.00;;;;;;;27.58;40.01;99866.77;106746;1263;67578;-40
2023/09/24 09:36:22;;;;;;;13.50;6.50;;;;;;;27.73;40.25;99865.34;106734;1263;72737;-40
2023/09/24 09:38:54;;;;;;;6.40;5.10;;;;;;;27.87;39.10;99866.71;106819;1263;60081;-40
2023/09/24 09:41:25;;;;;;;10.90;6.50;;;;;;;27.99;38.22;99859.02;106773;1263;60043;-40
2023/09/24 09:43:54;;;;;;;12.60;5.30;;;;;;;28.01;38.35;99856.94;106747;1263;73062;-39
2023/09/24 09:46:23;;;;;;;8.30;5.80;;;;;;;28.09;37.73;99865.88;106661;1264;67901;-39
2023/09/24 09:48:53;;;;;;;13.10;5.80;;;;;;;28.14;38.71;99863.15;106728;1266;72717;-39
2023/09/24 09:51:21;;;;;;;11.70;5.60;;;;;;;28.23;38.50;99861.80;106786;1268;60106;-39
2023/09/24 09:53:50;;;;;;;10.70;6.30;;;;;;;28.32;38.60;99859.39;106890;1263;59473;-39
2023/09/24 09:56:17;;;;;;;8.70;5.90;;;;;;;28.40;37.70;99861.30;106771;1263;72935;-40
2023/09/24 09:58:47;;;;;;;10.10;5.60;;;;;;;28.46;37.57;99853.98;106744;1263;67657;-40
2023/09/24 10:01:20;;;;;;;15.90;6.30;;;;;;;28.51;37.79;99854.05;106750;1266;72747;-40
2023/09/24 10:03:50;;;;;;;9.90;5.40;;;;;;;28.57;37.86;99852.46;106738;1263;60059;-40
2023/09/24 10:06:18;;;;;;;9.60;5.30;;;;;;;28.68;37.58;99853.31;106773;1264;60121;-40
2023/09/24 10:08:47;;;;;;;10.70;5.80;;;;;;;28.79;37.29;99851.85;106788;1264;73187;-40
2023/09/24 10:11:31;;;;;;;12.10;5.70;;;;;;;28.91;36.92;99852.05;106767;1264;66293;-40
2023/09/24 10:14:00;;;;;;;11.40;5.40;;;;;;;29.03;36.66;99854.74;106744;1269;72677;-40
2023/09/24 10:16:31;;;;;;;11.00;5.80;;;;;;;29.12;36.81;99859.60;106790;1269;59593;-40
2023/09/24 10:18:59;;;;;;;13.10;6.10;;;;;;;29.17;36.13;99855.10;106754;1264;60033;-39
2023/09/24 10:21:42;;;;;;;10.60;5.80;;;;;;;29.19;35.73;99854.80;106748;1263;73517;-40
2023/09/24 10:24:13;;;;;;;11.10;5.30;;;;;;;29.21;36.68;99851.65;106792;1264;67894;-40
2023/09/24 10:27:03;;;;;;;9.50;5.40;;;;;;;29.33;36.89;99854.96;106769;1267;72698;-39
2023/09/24 10:29:45;;;;;;;12.20;5.50;;;;;;;29.49;35.71;99850.33;106701;1264;60108;-40
2023/09/24 10:32:17;;;;;;;12.40;6.00;;;;;;;29.63;36.30;99849.45;106708;1264;60116;-40
2023/09/24 10:34:51;;;;;;;7.50;4.80;;;;;;;29.81;36.37;99852.04;106775;1263;73084;-40
2023/09/24 10:37:23;;;;;;;8.10;5.40;;;;;;;29.99;36.09;99850.40;106780;1263;67581;-40
2023/09/24 10:39:58;;;;;;;10.90;5.20;;;;;;;30.18;35.30;99848.33;106671;1267;72685;-40
2023/09/24 10:42:26;;;;;;;9.90;5.30;;;;;;;30.40;34.95;99847.79;106623;1267;60078;-40
2023/09/24 10:45:06;;;;;;;13.10;5.50;;;;;;;30.56;33.90;99848.91;106749;1264;59371;-40
2023/09/24 10:47:41;;;;;;;12.80;5.20;;;;;;;30.65;34.19;99851.64;107237;1261;73027;-40
2023/09/24 10:50:15;;;;;;;8.80;4.60;;;;;;;30.81;34.02;99850.55;107164;1257;67573;-40
2023/09/24 10:52:59;;;;;;;11.50;5.00;;;;;;;30.97;34.09;99845.46;107124;1257;72693;-40
2023/09/24 10:55:30;;;;;;;9.40;5.10;;;;;;;31.17;33.71;99844.17;107236;1258;59682;-40
2023/09/24 10:58:02;;;;;;;10.00;5.70;;;;;;;31.34;33.15;99843.64;107225;1263;60117;-40
2023/09/24 11:00:31;;;;;;;10.20;5.30;;;;;;;31.49;32.53;99837.72;107279;1257;73148;-40
2023/09/24 11:03:06;;;;;;;9.30;5.00;;;;;;;31.67;32.79;99838.46;107281;1257;69139;-41
2023/09/24 11:05:41;;;;;;;10.40;4.90;;;;;;;31.86;32.58;99832.86;107094;1260;72730;-40
2023/09/24 11:08:10;;;;;;;7.90;4.90;;;;;;;32.03;32.33;99833.33;107126;1256;60058;-40
2023/09/24 11:10:37;;;;;;;10.70;5.30;;;;;;;32.08;31.69;99832.69;107289;1257;59266;-40
2023/09/24 11:13:05;;;;;;;8.40;5.20;;;;;;;32.06;31.03;99834.80;107209;1257;73025;-40
2023/09/24 11:15:35;;;;;;;10.10;5.70;;;;;;;32.02;31.06;99831.70;107247;1257;66276;-40
2023/09/24 11:18:04;;;;;;;9.80;5.40;;;;;;;32.00;30.88;99834.32;107294;1260;72699;-40
2023/09/24 11:20:34;;;;;;;13.70;5.30;;;;;;;31.90;30.73;99834.98;107267;1260;60079;-40
2023/09/24 11:23:02;;;;;;;11.20;5.10;;;;;;;31.85;31.40;99836.21;107243;1257;59604;-41
2023/09/24 11:25:30;;;;;;;10.20;5.40;;;;;;;31.90;31.26;99834.34;107188;1257;71934;-40
2023/09/24 11:28:00;;;;;;;12.80;5.30;;;;;;;31.96;30.80;99835.61;107223;1257;67605;-41
2023/09/24 11:30:47;;;;;;;;;;;;;;;31.94;30.63;99829.08;107230;1257;72690;-41